createdAt,value
2023-08-31T00:01:21.878Z,17.60
2023-08-31T00:03:49.113Z,17.47
2023-08-31T00:06:16.232Z,17.31
2023-08-31T00:08:43.338Z,17.27
2023-08-31T00:11:10.441Z,17.26
2023-08-31T00:13:37.598Z,17.20
2023-08-31T00:16:06.075Z,17.00
2023-08-31T00:18:33.155Z,17.00
2023-08-31T00:21:00.300Z,17.04
2023-08-31T00:23:27.331Z,17.08
2023-08-31T00:25:54.760Z,17.03
2023-08-31T00:28:22.542Z,16.99
2023-08-31T00:30:50.146Z,17.23
2023-08-31T00:33:17.680Z,17.21
2023-08-31T00:35:49.305Z,17.07
2023-08-31T00:38:16.478Z,16.95
2023-08-31T00:40:45.884Z,16.78
2023-08-31T00:43:16.726Z,16.79
2023-08-31T00:45:45.367Z,16.93
2023-08-31T00:48:13.253Z,17.06
2023-08-31T00:50:40.715Z,17.14
2023-08-31T00:53:07.999Z,17.00
2023-08-31T00:55:35.335Z,16.96
2023-08-31T00:58:02.404Z,17.05
2023-08-31T01:00:34.432Z,17.38
2023-08-31T01:03:04.975Z,17.34
2023-08-31T01:05:55.468Z,17.27
2023-08-31T01:08:31.183Z,17.26
2023-08-31T01:10:58.335Z,17.18
2023-08-31T01:13:25.744Z,17.11
2023-08-31T01:15:57.273Z,17.08
2023-08-31T01:18:26.665Z,16.99
2023-08-31T01:21:03.442Z,17.11
2023-08-31T01:23:35.753Z,17.28
2023-08-31T01:26:03.377Z,17.25
2023-08-31T01:28:30.700Z,17.42
2023-08-31T01:30:58.326Z,17.30
2023-08-31T01:33:25.752Z,17.15
2023-08-31T01:35:55.517Z,17.06
2023-08-31T01:38:28.474Z,16.98
2023-08-31T01:40:58.867Z,16.93
2023-08-31T01:43:26.200Z,17.04
2023-08-31T01:45:55.012Z,17.06
2023-08-31T01:48:22.373Z,16.96
2023-08-31T01:50:49.432Z,17.00
2023-08-31T01:53:16.629Z,16.96
2023-08-31T01:55:43.728Z,16.88
2023-08-31T01:58:10.968Z,16.74
2023-08-31T02:00:39.715Z,16.92
2023-08-31T02:03:09.259Z,17.00
2023-08-31T02:05:36.626Z,16.95
2023-08-31T02:08:03.869Z,16.92
2023-08-31T02:10:31.089Z,16.93
2023-08-31T02:12:58.152Z,16.87
2023-08-31T02:15:25.701Z,16.86
2023-08-31T02:17:54.030Z,16.74
2023-08-31T02:20:21.646Z,16.64
2023-08-31T02:22:49.820Z,16.70
2023-08-31T02:25:17.798Z,16.69
2023-08-31T02:27:47.010Z,16.73
2023-08-31T02:30:16.106Z,16.71
2023-08-31T02:32:44.143Z,16.63
2023-08-31T02:35:14.797Z,16.58
2023-08-31T02:37:42.399Z,16.51
2023-08-31T02:40:09.902Z,16.43
2023-08-31T02:42:37.073Z,16.51
2023-08-31T02:45:05.180Z,16.50
2023-08-31T02:47:32.461Z,16.43
2023-08-31T02:50:00.835Z,16.45
2023-08-31T02:52:28.124Z,16.51
2023-08-31T02:54:55.250Z,16.20
2023-08-31T02:57:22.957Z,16.16
2023-08-31T02:59:53.428Z,16.31
2023-08-31T03:02:21.405Z,16.22
2023-08-31T03:04:48.608Z,16.12
2023-08-31T03:07:16.504Z,16.10
2023-08-31T03:09:43.701Z,16.22
2023-08-31T03:12:10.855Z,16.18
2023-08-31T03:14:38.404Z,15.97
2023-08-31T03:17:05.547Z,16.35
2023-08-31T03:19:32.595Z,16.18
2023-08-31T03:21:59.821Z,16.27
2023-08-31T03:24:27.696Z,16.10
2023-08-31T03:26:57.222Z,15.79
2023-08-31T03:29:24.338Z,15.75
2023-08-31T03:31:51.568Z,16.11
2023-08-31T03:34:18.901Z,16.02
2023-08-31T03:36:46.247Z,15.94
2023-08-31T03:39:13.402Z,15.81
2023-08-31T03:41:40.516Z,15.81
2023-08-31T03:44:09.407Z,16.03
2023-08-31T03:46:36.483Z,16.21
2023-08-31T03:49:03.682Z,16.12
2023-08-31T03:51:30.843Z,16.10
2023-08-31T03:53:58.020Z,16.14
2023-08-31T03:56:25.142Z,16.16
2023-08-31T03:58:52.407Z,16.13
2023-08-31T04:01:19.522Z,15.90
2023-08-31T04:03:47.766Z,15.71
2023-08-31T04:06:15.895Z,15.93
2023-08-31T04:08:43.049Z,16.14
2023-08-31T04:11:10.117Z,16.29
2023-08-31T04:13:37.488Z,15.94
2023-08-31T04:16:04.767Z,15.69
2023-08-31T04:18:32.028Z,15.88
2023-08-31T04:21:02.633Z,15.88
2023-08-31T04:23:30.250Z,15.72
2023-08-31T04:25:58.843Z,15.67
2023-08-31T04:28:26.217Z,16.11
2023-08-31T04:30:53.400Z,16.08
2023-08-31T04:33:20.766Z,16.12
2023-08-31T04:35:47.959Z,15.86
2023-08-31T04:38:15.046Z,15.67
2023-08-31T04:40:42.046Z,15.45
2023-08-31T04:43:09.337Z,15.68
2023-08-31T04:45:36.558Z,15.82
2023-08-31T04:48:04.390Z,15.94
2023-08-31T04:50:31.484Z,15.92
2023-08-31T04:52:59.181Z,16.04
2023-08-31T04:55:26.500Z,15.95
2023-08-31T04:57:53.655Z,16.01
2023-08-31T05:00:20.652Z,16.00
2023-08-31T05:02:47.885Z,16.02
2023-08-31T05:05:15.203Z,16.01
2023-08-31T05:07:42.588Z,15.99
2023-08-31T05:10:09.829Z,15.88
2023-08-31T05:12:37.056Z,15.92
2023-08-31T05:15:04.234Z,16.08
2023-08-31T05:17:32.238Z,16.29
2023-08-31T05:19:59.359Z,16.52
2023-08-31T05:22:26.530Z,16.60
2023-08-31T05:24:53.584Z,16.64
2023-08-31T05:27:20.810Z,16.69
2023-08-31T05:29:47.991Z,16.67
2023-08-31T05:32:15.217Z,16.69
2023-08-31T05:34:42.363Z,16.73
2023-08-31T05:37:09.705Z,16.88
2023-08-31T05:39:37.005Z,16.99
2023-08-31T05:42:04.396Z,17.04
2023-08-31T05:44:31.512Z,17.14
2023-08-31T05:46:58.718Z,17.13
2023-08-31T05:49:25.788Z,17.25
2023-08-31T05:51:52.911Z,17.49
2023-08-31T05:54:20.045Z,17.49
2023-08-31T05:56:48.918Z,17.63
2023-08-31T05:59:15.964Z,17.57
2023-08-31T06:01:44.526Z,17.57
2023-08-31T06:04:11.671Z,17.67
2023-08-31T06:06:38.961Z,17.68
2023-08-31T06:09:07.866Z,17.59
2023-08-31T06:11:36.218Z,17.75
2023-08-31T06:14:04.509Z,17.90
2023-08-31T06:16:31.726Z,17.87
2023-08-31T06:18:58.833Z,17.82
2023-08-31T06:21:25.869Z,17.75
2023-08-31T06:23:52.972Z,17.76
2023-08-31T06:26:20.179Z,17.60
2023-08-31T06:28:47.272Z,17.66
2023-08-31T06:31:14.374Z,17.66
2023-08-31T06:33:41.919Z,17.93
2023-08-31T06:36:09.106Z,18.41
2023-08-31T06:38:36.559Z,18.41
2023-08-31T06:41:03.973Z,18.32
2023-08-31T06:43:31.084Z,18.40
2023-08-31T06:46:04.389Z,18.41
2023-08-31T06:48:37.732Z,18.45
2023-08-31T06:51:05.049Z,18.39
2023-08-31T06:53:35.130Z,18.31
2023-08-31T06:56:02.222Z,18.24
2023-08-31T06:58:29.279Z,18.57
2023-08-31T07:00:56.405Z,18.37
2023-08-31T07:03:26.225Z,18.67
2023-08-31T07:05:55.317Z,18.82
2023-08-31T07:08:22.464Z,18.81
2023-08-31T07:10:53.077Z,18.91
2023-08-31T07:13:20.141Z,18.99
2023-08-31T07:15:49.611Z,19.10
2023-08-31T07:18:16.827Z,19.17
2023-08-31T07:20:46.284Z,19.19
2023-08-31T07:23:13.539Z,19.40
2023-08-31T07:25:40.923Z,19.53
2023-08-31T07:28:08.104Z,19.62
2023-08-31T07:30:35.308Z,19.72
2023-08-31T07:33:11.154Z,20.00
2023-08-31T07:35:41.139Z,19.74
2023-08-31T07:38:08.174Z,19.76
2023-08-31T07:40:35.419Z,19.52
2023-08-31T07:43:02.517Z,19.47
2023-08-31T07:45:29.617Z,19.50
2023-08-31T07:47:56.883Z,19.69
2023-08-31T07:50:24.059Z,19.77
2023-08-31T07:52:51.153Z,20.12
2023-08-31T07:55:18.318Z,20.47
2023-08-31T07:57:45.858Z,20.84
2023-08-31T08:00:15.516Z,21.41
2023-08-31T08:02:42.931Z,21.66
2023-08-31T08:05:10.207Z,22.01
2023-08-31T08:07:37.500Z,22.98
2023-08-31T08:10:04.825Z,23.08
2023-08-31T08:12:44.698Z,23.23
2023-08-31T08:15:12.207Z,22.94
2023-08-31T08:17:39.845Z,23.01
2023-08-31T08:20:07.917Z,23.05
2023-08-31T08:22:35.094Z,22.59
2023-08-31T08:25:02.183Z,22.08
2023-08-31T08:31:52.123Z,23.03
2023-08-31T08:34:19.249Z,22.96
2023-08-31T08:36:46.284Z,23.17
2023-08-31T08:39:13.501Z,22.87
2023-08-31T08:41:40.674Z,22.98
2023-08-31T08:44:08.189Z,23.13
2023-08-31T08:46:35.953Z,22.68
2023-08-31T08:49:04.014Z,22.07
2023-08-31T08:51:32.490Z,22.85
2023-08-31T08:54:00.564Z,22.73
2023-08-31T08:56:27.695Z,22.68
2023-08-31T08:58:55.229Z,22.87
2023-08-31T09:01:24.080Z,22.75
2023-08-31T09:03:52.517Z,22.73
2023-08-31T09:06:21.864Z,23.04
2023-08-31T09:08:55.048Z,22.99
2023-08-31T09:11:25.231Z,22.75
2023-08-31T09:13:53.106Z,22.63
2023-08-31T09:16:30.187Z,22.57
2023-08-31T09:18:57.722Z,22.71
2023-08-31T09:21:38.220Z,22.63
2023-08-31T09:24:14.790Z,22.65
2023-08-31T09:26:46.307Z,22.60
2023-08-31T09:29:13.697Z,22.69
2023-08-31T09:31:45.260Z,22.89
2023-08-31T09:34:12.536Z,23.01
2023-08-31T09:36:39.559Z,23.11
2023-08-31T09:39:07.504Z,23.19
2023-08-31T09:41:35.700Z,23.11
2023-08-31T09:44:19.289Z,22.85
2023-08-31T09:46:46.688Z,23.13
2023-08-31T09:49:15.397Z,22.99
2023-08-31T09:51:47.004Z,23.28
2023-08-31T09:54:15.017Z,23.38
2023-08-31T09:56:47.687Z,23.30
2023-08-31T09:59:17.475Z,23.38
2023-08-31T10:01:48.525Z,23.25
2023-08-31T10:04:16.592Z,23.63
2023-08-31T10:06:44.119Z,23.82
2023-08-31T10:09:13.871Z,23.47
2023-08-31T10:11:43.380Z,23.22
2023-08-31T10:14:12.248Z,23.67
2023-08-31T10:16:44.923Z,23.96
2023-08-31T10:19:12.382Z,24.21
2023-08-31T10:21:41.888Z,24.04
2023-08-31T10:24:09.426Z,23.91
2023-08-31T10:26:36.705Z,24.23
2023-08-31T10:29:07.356Z,23.94
2023-08-31T10:31:35.173Z,24.20
2023-08-31T10:34:06.380Z,24.44
2023-08-31T10:36:36.443Z,24.51
2023-08-31T10:39:09.269Z,24.12
2023-08-31T10:41:39.265Z,24.08
2023-08-31T10:44:19.300Z,24.16
2023-08-31T10:46:46.813Z,24.12
2023-08-31T10:49:15.547Z,24.58
2023-08-31T10:51:44.325Z,24.53
2023-08-31T10:54:20.810Z,24.13
2023-08-31T10:57:09.661Z,24.32
2023-08-31T10:59:44.581Z,24.41
2023-08-31T11:02:11.850Z,24.36
2023-08-31T11:04:56.620Z,24.42
2023-08-31T11:07:25.885Z,24.43
2023-08-31T11:09:53.817Z,24.84
2023-08-31T11:12:23.499Z,25.04
2023-08-31T11:14:50.889Z,25.27
2023-08-31T11:17:18.022Z,25.09
2023-08-31T11:19:45.523Z,24.89
2023-08-31T11:22:12.666Z,25.02
2023-08-31T11:24:48.669Z,24.67
2023-08-31T11:27:19.600Z,24.69
2023-08-31T11:29:46.827Z,24.96
2023-08-31T11:32:14.119Z,25.15
2023-08-31T11:34:43.228Z,25.34
2023-08-31T11:37:11.101Z,25.30
2023-08-31T11:39:38.816Z,25.20
2023-08-31T11:42:06.011Z,25.26
2023-08-31T11:44:33.299Z,25.26
2023-08-31T11:47:00.876Z,25.45
2023-08-31T11:49:28.407Z,25.33
2023-08-31T11:51:55.845Z,25.24
2023-08-31T11:54:25.474Z,24.97
2023-08-31T11:56:52.628Z,25.33
2023-08-31T11:59:20.182Z,25.44
2023-08-31T12:01:49.043Z,25.56
2023-08-31T12:04:26.630Z,25.54
2023-08-31T12:06:56.918Z,25.42
2023-08-31T12:09:24.234Z,25.43
2023-08-31T12:11:52.553Z,25.46
2023-08-31T12:14:23.864Z,25.28
2023-08-31T12:16:51.802Z,25.17
2023-08-31T12:19:19.241Z,25.21
2023-08-31T12:21:47.321Z,25.30
2023-08-31T12:24:15.125Z,25.63
2023-08-31T12:26:42.247Z,25.49
2023-08-31T12:29:09.420Z,25.85
2023-08-31T12:31:37.205Z,25.64
2023-08-31T12:34:05.874Z,25.56
2023-08-31T12:36:38.440Z,25.57
2023-08-31T12:39:07.928Z,25.57
2023-08-31T12:41:35.050Z,25.74
2023-08-31T12:44:02.140Z,25.61
2023-08-31T12:46:29.237Z,25.71
2023-08-31T12:48:56.500Z,25.76
2023-08-31T12:51:23.800Z,26.03
2023-08-31T12:53:50.887Z,26.25
2023-08-31T12:56:22.715Z,26.33
2023-08-31T12:58:50.969Z,26.40
2023-08-31T13:01:19.009Z,26.44
2023-08-31T13:03:46.706Z,26.37
2023-08-31T13:06:14.286Z,25.65
2023-08-31T13:08:41.512Z,25.10
2023-08-31T13:11:08.628Z,25.46
2023-08-31T13:13:35.733Z,25.79
2023-08-31T13:16:04.017Z,26.14
2023-08-31T13:18:31.259Z,26.27
2023-08-31T13:20:58.443Z,26.26
2023-08-31T13:23:25.621Z,26.25
2023-08-31T13:25:52.809Z,26.50
2023-08-31T13:28:20.125Z,26.37
2023-08-31T13:30:47.554Z,26.55
2023-08-31T13:33:14.974Z,26.46
2023-08-31T13:35:42.100Z,26.10
2023-08-31T13:38:09.338Z,26.18
2023-08-31T13:40:37.725Z,26.37
2023-08-31T13:43:05.198Z,26.26
2023-08-31T13:45:33.407Z,26.14
2023-08-31T13:48:01.727Z,26.30
2023-08-31T13:50:29.228Z,26.44
2023-08-31T13:52:56.468Z,26.15
2023-08-31T13:55:24.374Z,26.30
2023-08-31T13:57:51.640Z,26.15
2023-08-31T14:00:19.549Z,26.21
2023-08-31T14:02:47.000Z,26.05
2023-08-31T14:05:15.820Z,25.86
2023-08-31T14:07:43.223Z,25.81
2023-08-31T14:10:10.680Z,25.97
2023-08-31T14:12:38.066Z,26.11
2023-08-31T14:15:07.272Z,26.03
2023-08-31T14:17:34.691Z,25.97
2023-08-31T14:20:06.831Z,25.77
2023-08-31T14:22:34.279Z,25.77
2023-08-31T14:25:02.311Z,25.94
2023-08-31T14:27:31.152Z,26.07
2023-08-31T14:29:59.390Z,26.04
2023-08-31T14:32:28.762Z,26.01
2023-08-31T14:34:56.678Z,25.95
2023-08-31T14:37:23.959Z,25.92
2023-08-31T14:39:51.374Z,26.06
2023-08-31T14:42:21.484Z,26.13
2023-08-31T14:44:56.707Z,26.18
2023-08-31T14:47:24.134Z,26.14
2023-08-31T14:49:51.442Z,26.24
2023-08-31T14:52:18.798Z,26.01
2023-08-31T14:54:46.300Z,25.97
2023-08-31T14:57:13.628Z,25.83
2023-08-31T14:59:41.093Z,25.79
2023-08-31T15:02:37.032Z,25.89
2023-08-31T15:05:05.960Z,25.93
2023-08-31T15:08:02.001Z,26.05
2023-08-31T15:10:29.328Z,25.75
2023-08-31T15:12:59.672Z,25.92
2023-08-31T15:15:27.597Z,26.00
2023-08-31T15:17:55.652Z,26.05
2023-08-31T15:20:25.644Z,25.86
2023-08-31T15:23:43.608Z,25.68
2023-08-31T15:26:35.944Z,25.61
2023-08-31T15:29:05.142Z,25.71
2023-08-31T15:31:32.780Z,25.75
2023-08-31T15:34:00.153Z,25.72
2023-08-31T15:36:31.171Z,25.73
2023-08-31T15:38:58.687Z,26.06
2023-08-31T15:41:26.283Z,26.23
2023-08-31T15:43:53.613Z,26.07
2023-08-31T15:46:20.933Z,25.96
2023-08-31T15:48:50.126Z,25.93
2023-08-31T15:51:17.576Z,25.96
2023-08-31T15:53:44.839Z,25.99
2023-08-31T15:56:12.209Z,26.26
2023-08-31T15:58:39.519Z,25.98
2023-08-31T16:01:10.879Z,25.74
2023-08-31T16:03:38.800Z,25.51
2023-08-31T16:06:09.044Z,25.58
2023-08-31T16:08:36.540Z,25.65
2023-08-31T16:11:07.223Z,25.69
2023-08-31T16:13:36.868Z,25.64
2023-08-31T16:16:04.421Z,25.71
2023-08-31T16:18:31.816Z,25.75
2023-08-31T16:21:02.422Z,25.80
2023-08-31T16:23:29.743Z,25.66
2023-08-31T16:30:37.558Z,25.50
2023-08-31T16:33:05.251Z,25.38
2023-08-31T16:35:33.447Z,25.20
2023-08-31T16:38:02.145Z,25.18
2023-08-31T16:40:29.412Z,25.18
2023-08-31T16:42:56.735Z,25.21
2023-08-31T16:45:24.108Z,25.21
2023-08-31T16:47:51.498Z,25.17
2023-08-31T16:50:36.185Z,25.26
2023-08-31T16:53:04.391Z,25.38
2023-08-31T16:55:32.553Z,25.22
2023-08-31T16:58:04.689Z,25.19
2023-08-31T17:00:32.023Z,25.21
2023-08-31T17:02:59.422Z,25.09
2023-08-31T17:05:29.967Z,25.21
2023-08-31T17:07:57.492Z,25.50
2023-08-31T17:10:24.879Z,25.43
2023-08-31T17:12:53.446Z,25.23
2023-08-31T17:15:20.752Z,25.04
2023-08-31T17:17:49.348Z,25.17
2023-08-31T17:20:17.848Z,25.12
2023-08-31T17:22:46.233Z,25.04
2023-08-31T17:25:14.223Z,24.87
2023-08-31T17:27:43.567Z,24.89
2023-08-31T17:30:11.120Z,24.81
2023-08-31T17:32:38.620Z,24.73
2023-08-31T17:35:07.525Z,24.60
2023-08-31T17:37:35.849Z,24.42
2023-08-31T17:40:08.069Z,24.40
2023-08-31T17:42:41.153Z,24.43
2023-08-31T17:45:09.827Z,24.26
2023-08-31T17:47:37.187Z,24.15
2023-08-31T17:50:04.965Z,23.95
2023-08-31T17:52:32.409Z,24.05
2023-08-31T17:55:00.069Z,23.93
2023-08-31T17:57:29.862Z,23.71
2023-08-31T17:59:57.252Z,23.66
2023-08-31T18:02:24.689Z,23.57
2023-08-31T18:04:52.141Z,23.53
2023-08-31T18:07:19.531Z,23.39
2023-08-31T18:09:46.792Z,23.28
2023-08-31T18:12:14.148Z,23.14
2023-08-31T18:14:44.625Z,23.12
2023-08-31T18:17:12.699Z,22.87
2023-08-31T18:19:40.209Z,23.07
2023-08-31T18:22:07.618Z,23.03
2023-08-31T18:24:36.881Z,22.71
2023-08-31T18:27:04.652Z,22.64
2023-08-31T18:29:31.918Z,22.61
2023-08-31T18:31:59.188Z,22.73
2023-08-31T18:34:27.286Z,22.90
2023-08-31T18:36:54.705Z,22.63
2023-08-31T18:39:23.598Z,22.60
2023-08-31T18:41:51.506Z,22.66
2023-08-31T18:44:18.868Z,22.57
2023-08-31T18:46:46.147Z,22.49
2023-08-31T18:49:13.547Z,22.46
2023-08-31T18:51:44.717Z,22.42
2023-08-31T18:54:12.191Z,22.33
2023-08-31T18:56:40.037Z,22.28
2023-08-31T18:59:07.677Z,22.08
2023-08-31T19:01:35.007Z,21.98
2023-08-31T19:04:04.449Z,21.95
2023-08-31T19:06:35.273Z,22.04
2023-08-31T19:09:04.664Z,21.79
2023-08-31T19:11:32.148Z,21.95
2023-08-31T19:13:59.478Z,22.03
2023-08-31T19:16:26.707Z,21.71
2023-08-31T19:18:54.910Z,21.66
2023-08-31T19:21:23.669Z,21.89
2023-08-31T19:23:50.727Z,21.93
2023-08-31T19:26:18.360Z,21.82
2023-08-31T19:28:45.517Z,21.91
2023-08-31T19:31:12.687Z,21.71
2023-08-31T19:33:39.857Z,21.57
2023-08-31T19:36:07.098Z,21.55
2023-08-31T19:38:34.606Z,21.56
2023-08-31T19:41:01.779Z,21.47
2023-08-31T19:43:28.905Z,21.49
2023-08-31T19:45:56.053Z,21.54
2023-08-31T19:48:23.717Z,21.51
2023-08-31T19:50:53.079Z,21.45
2023-08-31T19:53:20.712Z,21.58
2023-08-31T19:55:49.757Z,21.54
2023-08-31T19:58:17.359Z,21.66
2023-08-31T20:00:44.443Z,21.57
2023-08-31T20:03:11.751Z,21.59
2023-08-31T20:05:38.920Z,21.64
2023-08-31T20:08:06.288Z,21.61
2023-08-31T20:10:33.500Z,21.64
2023-08-31T20:13:00.691Z,21.58
2023-08-31T20:15:27.875Z,21.44
2023-08-31T20:17:55.076Z,21.37
2023-08-31T20:20:22.262Z,21.31
2023-08-31T20:22:50.361Z,21.32
2023-08-31T20:25:19.718Z,21.40
2023-08-31T20:27:47.991Z,21.21
2023-08-31T20:30:15.222Z,21.19
2023-08-31T20:32:42.576Z,21.09
2023-08-31T20:35:11.586Z,21.09
2023-08-31T20:37:38.943Z,21.10
2023-08-31T20:40:10.093Z,21.10
2023-08-31T20:42:37.729Z,21.16
2023-08-31T20:45:06.339Z,21.05
2023-08-31T20:47:33.458Z,20.98
2023-08-31T20:50:00.811Z,21.17
2023-08-31T20:52:31.238Z,20.95
2023-08-31T20:54:59.194Z,20.94
2023-08-31T20:57:26.511Z,20.90
2023-08-31T20:59:54.532Z,20.82
2023-08-31T21:02:21.670Z,20.79
2023-08-31T21:04:49.499Z,21.04
2023-08-31T21:07:16.679Z,20.86
2023-08-31T21:09:45.708Z,20.79
2023-08-31T21:12:14.028Z,20.63
2023-08-31T21:14:41.216Z,20.56
2023-08-31T21:17:08.313Z,20.75
2023-08-31T21:19:35.442Z,20.48
2023-08-31T21:22:02.576Z,20.57
2023-08-31T21:24:29.825Z,20.61
2023-08-31T21:26:56.893Z,20.55
2023-08-31T21:29:24.265Z,20.49
2023-08-31T21:31:51.423Z,20.37
2023-08-31T21:34:18.680Z,20.53
2023-08-31T21:36:45.874Z,20.46
2023-08-31T21:39:12.919Z,20.51
2023-08-31T21:41:40.037Z,20.38
2023-08-31T21:44:07.220Z,20.33
2023-08-31T21:46:34.402Z,20.38
2023-08-31T21:49:01.464Z,20.42
2023-08-31T21:51:28.640Z,20.35
2023-08-31T21:53:56.926Z,20.40
2023-08-31T21:56:23.996Z,20.13
2023-08-31T21:58:51.056Z,19.85
2023-08-31T22:01:18.191Z,19.92
2023-08-31T22:03:45.451Z,19.67
2023-08-31T22:06:13.332Z,19.96
2023-08-31T22:08:41.752Z,19.96
2023-08-31T22:11:08.854Z,20.00
2023-08-31T22:13:36.622Z,20.06
2023-08-31T22:16:12.055Z,20.18
2023-08-31T22:18:50.312Z,20.24
2023-08-31T22:21:18.307Z,20.20
2023-08-31T22:23:45.406Z,20.23
2023-08-31T22:26:12.499Z,20.20
2023-08-31T22:28:39.710Z,20.17
2023-08-31T22:31:06.973Z,20.07
2023-08-31T22:33:34.262Z,20.02
2023-08-31T22:36:07.345Z,20.03
2023-08-31T22:38:34.510Z,20.13
2023-08-31T22:41:05.480Z,19.92
2023-08-31T22:43:32.553Z,19.94
2023-08-31T22:45:59.980Z,19.98
2023-08-31T22:48:27.265Z,20.01
2023-08-31T22:51:01.272Z,19.95
2023-08-31T22:53:28.756Z,19.87
2023-08-31T22:55:55.887Z,19.71
2023-08-31T22:58:22.999Z,19.70
2023-08-31T23:00:52.980Z,19.79
2023-08-31T23:03:21.249Z,19.68
2023-08-31T23:05:48.492Z,19.68
2023-08-31T23:08:15.973Z,19.77
2023-08-31T23:10:43.627Z,19.63
2023-08-31T23:13:10.951Z,19.46
2023-08-31T23:15:39.029Z,19.49
2023-08-31T23:18:06.659Z,19.62
2023-08-31T23:20:34.220Z,19.51
2023-08-31T23:23:01.496Z,19.53
2023-08-31T23:25:28.845Z,19.40
2023-08-31T23:27:56.159Z,19.29
2023-08-31T23:30:23.582Z,19.26
2023-08-31T23:32:51.043Z,19.21
2023-08-31T23:35:18.810Z,19.18
2023-08-31T23:37:46.258Z,19.19
2023-08-31T23:40:13.535Z,19.13
2023-08-31T23:42:43.545Z,18.92
2023-08-31T23:45:11.289Z,18.91
2023-08-31T23:47:38.651Z,18.88
2023-08-31T23:50:07.026Z,18.89
2023-08-31T23:52:34.379Z,18.98
2023-08-31T23:55:04.008Z,18.91
2023-08-31T23:57:37.358Z,18.93
